Time;durP1;ratioP1;P1;durP2;ratioP2;P2;SDS_P1;SDS_P2;PMS_P1;PMS_P2;Temp;Humidity;BMP_temperature;BMP_pressure;BME280_temperature;BME280_humidity;BME280_pressure;Samples;Min_cycle;Max_cycle;Signal;HPM_P1;HPM_P2
2022/09/08 00:00:36;;;;;;;5.43;4.50;;;;;;;21.16;51.22;101284.09;5046303;28;20871;-57
2022/09/08 00:03:04;;;;;;;5.75;4.13;;;;;;;21.13;51.37;101289.09;5046377;28;20753;-55
2022/09/08 00:05:35;;;;;;;6.40;3.88;;;;;;;21.11;51.45;101283.94;5045974;28;20424;-57
2022/09/08 00:08:00;;;;;;;7.10;4.30;;;;;;;21.13;51.28;101291.81;5045878;28;20413;-57
2022/09/08 00:10:27;;;;;;;6.97;4.37;;;;;;;21.14;51.30;101288.03;5046030;28;20945;-56
2022/09/08 00:12:53;;;;;;;6.93;4.28;;;;;;;21.11;51.25;101288.50;5046090;28;20389;-57
2022/09/08 00:15:20;;;;;;;4.65;4.20;;;;;;;21.13;51.28;101300.69;5045922;28;20390;-57
2022/09/08 00:17:46;;;;;;;5.72;4.20;;;;;;;21.09;51.27;101294.13;5045762;28;20791;-56
2022/09/08 00:20:12;;;;;;;5.70;4.23;;;;;;;21.08;51.47;101303.25;5045513;28;20432;-56
2022/09/08 00:22:38;;;;;;;7.97;4.50;;;;;;;21.00;51.55;101296.28;5045861;28;20952;-58
2022/09/08 00:26:17;;;;;;;5.65;4.57;;;;;;;21.02;51.65;101303.34;5066702;27;20430;-57
2022/09/08 00:28:43;;;;;;;8.27;4.38;;;;;;;20.97;51.68;101301.31;5046668;28;20405;-57
2022/09/08 00:31:09;;;;;;;5.90;4.00;;;;;;;20.96;51.88;101303.19;5047164;28;20435;-58
2022/09/08 00:33:34;;;;;;;7.03;4.50;;;;;;;20.96;51.84;101310.47;5046900;28;20421;-57
2022/09/08 00:40:52;;;;;;;7.72;4.45;;;;;;;20.94;51.86;101302.59;5030057;28;20407;-57
2022/09/08 00:43:34;;;;;;;5.50;4.40;;;;;;;20.87;51.82;101293.75;5026761;28;20464;-57
2022/09/08 00:48:21;;;;;;;4.78;4.30;;;;;;;20.89;52.09;101291.66;5067100;28;20417;-57
2022/09/08 00:50:47;;;;;;;8.33;4.47;;;;;;;20.88;52.08;101298.09;5047053;28;20455;-57
2022/09/08 00:53:16;;;;;;;7.15;4.43;;;;;;;20.81;52.13;101290.09;5047074;28;20757;-57
2022/09/08 00:55:42;;;;;;;8.07;4.33;;;;;;;20.84;52.38;101304.16;5046847;28;20374;-57
2022/09/08 00:58:38;;;;;;;6.97;4.85;;;;;;;20.80;52.47;101307.31;5094498;27;20403;-57
2022/09/08 01:01:05;;;;;;;10.13;4.68;;;;;;;20.76;52.62;101305.25;5067166;28;20479;-57
2022/09/08 01:03:32;;;;;;;10.85;4.75;;;;;;;20.80;52.48;101304.59;5066669;28;20915;-57
2022/09/08 01:12:43;;;;;;;7.15;4.80;;;;;;;20.83;52.36;101297.94;5066822;28;20384;-57
2022/09/08 01:12:53;;;;;;;6.00;4.60;;;;;;;20.78;52.30;101293.22;5087026;28;20401;-58
2022/09/08 01:16:50;;;;;;;6.35;5.40;;;;;;;20.75;52.42;101300.94;5033462;28;20415;-57
2022/09/08 01:19:31;;;;;;;9.23;6.40;;;;;;;20.73;52.13;101292.25;5027084;28;20457;-57
2022/09/08 01:21:57;;;;;;;7.70;5.07;;;;;;;20.68;52.35;101290.22;5026644;28;20473;-57
2022/09/08 01:24:50;;;;;;;7.68;4.72;;;;;;;20.68;52.50;101292.09;5026919;28;20878;-57
2022/09/08 01:27:29;;;;;;;7.73;4.73;;;;;;;20.71;52.53;101294.34;5026634;28;20894;-57
2022/09/08 01:30:04;;;;;;;8.07;4.70;;;;;;;20.61;52.54;101290.28;5026832;28;20391;-57
2022/09/08 01:32:33;;;;;;;7.60;5.32;;;;;;;20.57;52.71;101290.94;5026278;28;20919;-57
2022/09/08 01:34:59;;;;;;;10.47;5.90;;;;;;;20.53;52.64;101287.84;5026363;28;20422;-57
2022/09/08 01:37:25;;;;;;;9.20;4.85;;;;;;;20.53;52.55;101293.25;5026239;28;20457;-57
2022/09/08 01:39:50;;;;;;;5.63;4.73;;;;;;;20.49;52.89;101283.13;5014278;28;20875;-58
2022/09/08 01:42:16;;;;;;;7.22;5.10;;;;;;;20.46;53.09;101294.38;5007985;28;20392;-57
2022/09/08 01:44:43;;;;;;;5.30;4.70;;;;;;;20.43;52.83;101288.34;5012301;28;20423;-56
2022/09/08 01:47:09;;;;;;;8.88;4.60;;;;;;;20.45;52.70;101290.81;5026147;28;20758;-57
2022/09/08 01:51:34;;;;;;;7.90;4.75;;;;;;;20.42;52.80;101283.22;5095281;27;20907;-56
2022/09/08 01:54:00;;;;;;;9.13;4.50;;;;;;;20.40;52.81;101288.81;5072365;28;20416;-57
2022/09/08 01:56:25;;;;;;;6.87;4.87;;;;;;;20.33;52.94;101292.59;5086871;28;20378;-57
2022/09/08 01:58:50;;;;;;;5.73;4.93;;;;;;;20.33;53.03;101287.19;5072617;28;20380;-57
2022/09/08 02:01:16;;;;;;;7.22;5.07;;;;;;;20.32;52.98;101290.97;5080027;28;20750;-57
2022/09/08 02:03:41;;;;;;;6.47;4.90;;;;;;;20.36;52.95;101303.75;5079643;28;20488;-56
2022/09/08 02:08:15;;;;;;;5.85;5.18;;;;;;;20.19;53.19;101290.03;5077625;28;20408;-57
2022/09/08 02:10:41;;;;;;;7.07;5.00;;;;;;;20.17;53.45;101300.19;5026663;27;20483;-56
2022/09/08 02:13:07;;;;;;;6.43;4.60;;;;;;;20.16;53.38;101298.53;5040299;28;20469;-57
2022/09/08 02:15:33;;;;;;;7.05;4.80;;;;;;;20.10;53.24;101288.66;5028783;28;20471;-57
2022/09/08 02:17:59;;;;;;;5.85;4.97;;;;;;;20.10;53.28;101293.22;5026392;28;20390;-57
2022/09/08 02:22:09;;;;;;;5.82;4.63;;;;;;;20.06;53.40;101282.06;5082366;27;20468;-56
2022/09/08 02:24:35;;;;;;;7.30;4.65;;;;;;;20.04;53.28;101273.38;5075164;28;20406;-57
2022/09/08 02:27:00;;;;;;;6.63;4.67;;;;;;;20.01;53.41;101273.81;5086423;28;20444;-57
2022/09/08 02:29:26;;;;;;;9.50;5.00;;;;;;;20.00;53.52;101281.06;5086255;28;20875;-54
2022/09/08 02:31:51;;;;;;;8.98;5.47;;;;;;;20.02;53.46;101284.38;5086825;28;20386;-57
2022/09/08 02:34:17;;;;;;;7.23;4.97;;;;;;;19.97;53.53;101284.19;5074489;28;20388;-58
2022/09/08 02:36:42;;;;;;;7.50;4.78;;;;;;;19.95;53.58;101283.59;5084546;28;20380;-57
2022/09/08 02:39:41;;;;;;;7.70;4.97;;;;;;;19.79;53.78;101286.78;5036738;28;20419;-58
2022/09/08 02:42:09;;;;;;;6.40;4.97;;;;;;;19.80;53.74;101285.75;5026906;28;20457;-56
2022/09/08 02:46:54;;;;;;;7.07;5.07;;;;;;;19.79;53.75;101279.56;5043750;28;20451;-56
2022/09/08 02:49:20;;;;;;;7.67;5.27;;;;;;;19.81;53.76;101273.97;5026811;28;20404;-56
2022/09/08 02:51:46;;;;;;;7.03;5.13;;;;;;;19.76;53.81;101271.91;5012853;28;20443;-56
2022/09/08 02:54:22;;;;;;;5.93;5.30;;;;;;;19.76;53.77;101271.91;5077598;27;20483;-56
2022/09/08 02:56:47;;;;;;;8.93;5.47;;;;;;;19.73;53.96;101269.66;5066355;28;20396;-56
2022/09/08 02:59:14;;;;;;;9.90;5.43;;;;;;;19.66;54.01;101264.31;5066499;28;20419;-57
2022/09/08 03:01:49;;;;;;;9.10;5.20;;;;;;;19.67;54.13;101273.19;5081159;27;2036220;-56
2022/09/08 03:04:14;;;;;;;7.53;5.20;;;;;;;19.68;54.14;101278.38;5131091;27;20395;-56
2022/09/08 03:06:40;;;;;;;6.47;5.07;;;;;;;19.66;54.14;101271.53;5126277;27;20382;-56
2022/09/08 03:09:06;;;;;;;7.00;5.20;;;;;;;19.65;54.16;101272.59;5128199;27;20383;-56
2022/09/08 03:11:33;;;;;;;8.63;5.15;;;;;;;19.64;54.10;101276.31;5126426;27;20898;-56
2022/09/08 03:13:59;;;;;;;7.00;5.43;;;;;;;19.65;54.14;101280.66;5126843;28;20945;-57
2022/09/08 03:16:27;;;;;;;6.53;5.28;;;;;;;19.66;54.04;101282.28;5126902;27;20370;-57
2022/09/08 03:18:53;;;;;;;6.43;4.70;;;;;;;19.62;54.35;101278.41;5128753;27;20393;-56
2022/09/08 03:21:18;;;;;;;7.82;5.32;;;;;;;19.59;54.27;101266.22;5126756;27;20429;-59
2022/09/08 03:23:44;;;;;;;9.13;5.33;;;;;;;19.62;54.29;101268.44;5128585;27;20880;-57
2022/09/08 03:26:13;;;;;;;6.30;5.38;;;;;;;19.52;54.52;101268.13;5126139;27;20383;-57
2022/09/08 03:28:40;;;;;;;6.63;5.20;;;;;;;19.47;54.70;101274.13;5126115;27;20759;-57
2022/09/08 03:31:10;;;;;;;6.93;5.03;;;;;;;19.48;54.59;101272.25;5125911;27;20407;-56
2022/09/08 03:33:36;;;;;;;8.65;5.07;;;;;;;19.50;54.63;101267.50;5126693;28;20385;-57
2022/09/08 03:36:05;;;;;;;7.32;5.28;;;;;;;19.43;54.70;101266.72;5128396;27;20473;-57
2022/09/08 03:38:32;;;;;;;7.60;5.22;;;;;;;19.41;54.90;101277.69;5124074;28;20482;-56
2022/09/08 03:40:57;;;;;;;6.63;5.32;;;;;;;19.45;54.81;101286.16;5126549;28;20399;-56
2022/09/08 03:43:23;;;;;;;11.50;5.50;;;;;;;19.40;54.90;101281.41;5126461;27;20442;-56
2022/09/08 03:45:48;;;;;;;8.83;5.80;;;;;;;19.42;55.00;101290.09;5126580;28;20397;-56
2022/09/08 03:48:14;;;;;;;6.90;5.40;;;;;;;19.44;55.01;101296.06;5128580;27;20383;-56
2022/09/08 03:50:41;;;;;;;14.30;5.70;;;;;;;19.47;54.87;101301.03;5126230;27;20422;-56
2022/09/08 03:53:07;;;;;;;12.80;6.20;;;;;;;19.44;54.92;101295.25;5126147;27;20417;-56
2022/09/08 03:55:32;;;;;;;9.18;5.53;;;;;;;19.43;54.93;101293.63;5126033;27;20411;-57
2022/09/08 03:57:59;;;;;;;8.10;5.47;;;;;;;19.46;54.75;101302.06;5125147;27;20388;-57
2022/09/08 04:00:26;;;;;;;7.50;5.15;;;;;;;19.46;54.66;101303.91;5124024;27;20447;-58
2022/09/08 04:02:51;;;;;;;9.20;5.75;;;;;;;19.43;54.77;101301.69;5123102;27;20564;-57
2022/09/08 04:05:17;;;;;;;8.55;5.85;;;;;;;19.47;54.74;101302.91;5123899;27;20462;-57
2022/09/08 04:07:43;;;;;;;7.93;5.50;;;;;;;19.56;54.41;101298.09;5141871;27;20735;-57
2022/09/08 04:10:11;;;;;;;9.05;5.25;;;;;;;19.72;54.02;101300.28;5127673;27;20379;-57
2022/09/08 04:12:37;;;;;;;8.55;5.97;;;;;;;19.72;54.04;101302.16;5117509;27;20790;-58
2022/09/08 04:15:04;;;;;;;8.82;5.78;;;;;;;19.74;53.90;101294.72;5130822;27;20361;-59
2022/09/08 04:17:30;;;;;;;8.40;6.00;;;;;;;19.81;53.71;101290.94;5117327;27;20382;-57
2022/09/08 04:19:55;;;;;;;9.50;5.70;;;;;;;19.92;53.44;101294.78;5128476;27;20806;-57
2022/09/08 04:22:21;;;;;;;7.23;5.47;;;;;;;20.05;53.12;101294.69;5129256;27;20382;-58
2022/09/08 04:24:47;;;;;;;8.77;5.53;;;;;;;20.16;52.79;101287.75;5111698;27;20923;-59
2022/09/08 04:27:14;;;;;;;10.52;5.40;;;;;;;20.32;52.47;101290.97;5119498;27;20448;-58
2022/09/08 04:29:40;;;;;;;9.45;5.70;;;;;;;20.46;52.37;101289.78;5105374;27;20384;-58
2022/09/08 04:32:07;;;;;;;7.40;5.45;;;;;;;20.66;51.88;101286.94;5104894;28;20436;-58
2022/09/08 04:34:33;;;;;;;9.33;5.63;;;;;;;20.89;51.32;101290.84;5110483;28;20437;-57
2022/09/08 04:36:59;;;;;;;10.27;5.80;;;;;;;21.10;50.92;101294.94;5108225;28;20372;-57
2022/09/08 04:39:24;;;;;;;12.27;6.23;;;;;;;21.29;50.36;101290.38;5112146;28;20897;-57
2022/09/08 04:41:49;;;;;;;10.27;6.77;;;;;;;21.57;49.74;101301.41;5118155;27;20808;-58
2022/09/08 04:44:15;;;;;;;16.77;7.18;;;;;;;21.82;49.31;101302.31;5106161;28;20372;-58
2022/09/08 04:48:40;;;;;;;10.77;5.75;;;;;;;22.15;48.39;101301.81;5057684;27;2125064;-59
2022/09/08 04:51:06;;;;;;;9.37;5.57;;;;;;;22.40;47.81;101317.00;5146796;27;20404;-57
2022/09/08 04:53:35;;;;;;;8.90;5.90;;;;;;;22.62;47.29;101317.25;5144934;27;20385;-57
2022/09/08 04:56:03;;;;;;;11.57;6.40;;;;;;;22.81;46.81;101315.22;5126226;27;20493;-58
2022/09/08 04:58:30;;;;;;;12.70;8.90;;;;;;;23.04;46.07;101317.91;5140984;27;20388;-57
2022/09/08 05:01:06;;;;;;;14.33;7.93;;;;;;;23.14;45.64;101314.63;5148104;27;20452;-58
2022/09/08 05:03:32;;;;;;;18.60;6.80;;;;;;;23.32;45.28;101318.19;5148063;27;20404;-58
2022/09/08 05:06:03;;;;;;;11.52;5.97;;;;;;;23.51;44.89;101316.13;5133403;27;20867;-57
2022/09/08 05:08:28;;;;;;;10.68;5.55;;;;;;;23.73;44.59;101327.91;5147953;27;20444;-57
2022/09/08 05:10:54;;;;;;;12.13;6.83;;;;;;;23.89;44.21;101325.50;5147567;27;20438;-57
2022/09/08 05:13:19;;;;;;;13.40;6.80;;;;;;;24.07;43.96;101330.69;5148121;27;20368;-57
2022/09/08 05:15:45;;;;;;;15.20;7.50;;;;;;;24.27;43.62;101332.09;5147764;27;20385;-58
2022/09/08 05:18:10;;;;;;;11.23;7.00;;;;;;;24.47;43.23;101335.13;5147738;27;20405;-58
2022/09/08 05:20:36;;;;;;;12.82;6.70;;;;;;;24.71;42.90;101341.22;5141821;27;20468;-57
2022/09/08 05:23:01;;;;;;;12.52;7.20;;;;;;;24.97;42.36;101338.84;5147022;27;20368;-58
2022/09/08 05:25:28;;;;;;;12.77;7.20;;;;;;;25.26;41.92;101346.81;5133421;27;20377;-58
2022/09/08 05:27:53;;;;;;;14.43;6.60;;;;;;;25.43;41.49;101344.88;5147699;27;20427;-57
2022/09/08 05:30:18;;;;;;;11.17;6.00;;;;;;;25.67;41.00;101339.94;5147590;27;20747;-58
2022/09/08 05:32:44;;;;;;;13.53;6.67;;;;;;;26.06;40.74;101349.88;5147506;27;20382;-58
2022/09/08 05:35:10;;;;;;;12.93;5.68;;;;;;;26.46;39.83;101351.25;5147515;27;20882;-58
2022/09/08 05:37:35;;;;;;;11.70;6.50;;;;;;;26.81;38.70;101350.72;5147546;27;20747;-57
2022/09/08 05:40:01;;;;;;;15.37;9.87;;;;;;;26.93;38.72;101347.75;5147299;27;20381;-56
2022/09/08 05:42:26;;;;;;;25.20;10.85;;;;;;;27.18;38.26;101335.38;5147492;27;20913;-58
2022/09/08 05:46:45;;;;;;;16.27;9.45;;;;;;;27.94;36.73;101336.69;5078807;27;20404;-58
2022/09/08 05:49:10;;;;;;;14.60;8.60;;;;;;;28.52;35.98;101336.34;5066604;28;20503;-58
2022/09/08 05:51:36;;;;;;;13.43;7.37;;;;;;;29.02;34.91;101328.34;5062682;28;20458;-58
2022/09/08 05:54:02;;;;;;;11.47;7.10;;;;;;;29.53;33.93;101328.94;5064839;28;20925;-61
2022/09/08 05:56:27;;;;;;;14.63;7.65;;;;;;;30.14;33.16;101328.75;5056361;28;20478;-58
2022/09/08 05:58:57;;;;;;;14.60;7.35;;;;;;;30.68;32.45;101334.00;5061713;28;20936;-59
2022/09/08 06:01:23;;;;;;;12.53;6.80;;;;;;;31.10;31.61;101333.53;5064173;28;20384;-58
2022/09/08 06:03:53;;;;;;;11.53;6.97;;;;;;;31.42;31.16;101330.91;5063389;28;20463;-59
2022/09/08 06:06:20;;;;;;;15.68;6.82;;;;;;;31.97;30.33;101332.28;5063151;28;20939;-57
2022/09/08 06:08:46;;;;;;;10.25;6.10;;;;;;;32.25;29.88;101332.38;5065677;28;20453;-58
2022/09/08 06:11:12;;;;;;;10.32;6.38;;;;;;;32.58;29.36;101322.16;5061336;28;20848;-58
2022/09/08 06:13:38;;;;;;;10.23;5.93;;;;;;;33.13;28.62;101322.19;5066253;28;20384;-58
2022/09/08 06:16:14;;;;;;;10.15;6.03;;;;;;;33.62;28.02;101324.38;5059448;28;20404;-59
2022/09/08 06:18:42;;;;;;;8.10;5.30;;;;;;;33.96;27.32;101325.78;5066976;28;20388;-59
2022/09/08 06:21:17;;;;;;;7.65;5.75;;;;;;;34.43;27.05;101328.97;5051840;28;20396;-61
2022/09/08 06:23:43;;;;;;;6.43;5.78;;;;;;;34.83;25.89;101315.22;5065432;28;20376;-58
2022/09/08 06:26:47;;;;;;;8.30;6.75;;;;;;;35.27;25.15;101318.06;5064328;28;20416;-58
2022/09/08 06:29:23;;;;;;;10.15;5.55;;;;;;;36.14;24.21;101321.56;5040991;28;20432;-58
2022/09/08 06:31:57;;;;;;;9.37;5.33;;;;;;;36.74;23.49;101316.97;5046351;28;20467;-59
2022/09/08 06:34:37;;;;;;;7.68;5.60;;;;;;;37.36;22.79;101309.06;5060034;28;20376;-60
2022/09/08 06:37:07;;;;;;;9.27;5.38;;;;;;;38.05;22.11;101304.84;5055646;28;20376;-60
2022/09/08 06:39:42;;;;;;;9.20;5.30;;;;;;;38.94;21.35;101310.88;5063637;28;21052;-59
2022/09/08 06:42:16;;;;;;;8.65;5.35;;;;;;;39.52;20.35;101305.88;5052159;28;20399;-59
2022/09/08 06:44:44;;;;;;;7.82;5.38;;;;;;;39.69;20.02;101310.31;5065155;28;20505;-60
2022/09/08 06:47:19;;;;;;;5.80;5.10;;;;;;;40.24;19.61;101321.69;5053851;28;20792;-59
2022/09/08 06:49:45;;;;;;;7.68;5.43;;;;;;;39.68;20.42;101316.22;5065502;28;20398;-59
2022/09/08 06:52:48;;;;;;;8.30;5.45;;;;;;;41.29;18.39;101308.22;5065368;28;20377;-58
2022/09/08 06:55:18;;;;;;;9.60;5.60;;;;;;;42.03;17.74;101307.25;5055338;28;20408;-59
2022/09/08 06:57:59;;;;;;;8.18;5.60;;;;;;;42.43;17.20;101307.91;5053882;28;20751;-59
2022/09/08 07:00:30;;;;;;;9.73;6.38;;;;;;;42.82;16.85;101304.91;5051989;28;20412;-58
2022/09/08 07:03:03;;;;;;;6.67;5.97;;;;;;;42.57;16.98;101300.59;5052142;28;20392;-59
2022/09/08 07:05:45;;;;;;;9.02;6.05;;;;;;;43.24;16.54;101299.13;5037875;28;20413;-58
2022/09/08 07:08:26;;;;;;;7.38;5.63;;;;;;;43.49;16.41;101291.06;5042061;28;20382;-59
2022/09/08 07:11:05;;;;;;;8.25;6.40;;;;;;;43.18;16.28;101289.47;5049513;28;20762;-59
2022/09/08 07:14:13;;;;;;;7.45;5.75;;;;;;;42.54;16.98;101286.63;5050615;28;20404;-59
2022/09/08 07:17:03;;;;;;;6.97;6.03;;;;;;;41.61;17.94;101300.50;5041724;28;20404;-58
2022/09/08 07:19:40;;;;;;;8.98;5.80;;;;;;;39.75;19.63;101302.53;5050530;28;20461;-60
2022/09/08 07:22:33;;;;;;;6.57;5.60;;;;;;;38.17;21.14;101309.59;5055473;28;20480;-59
2022/09/08 07:25:34;;;;;;;8.10;5.97;;;;;;;37.15;22.47;101311.84;5051474;28;20421;-59
2022/09/08 07:28:05;;;;;;;8.18;6.00;;;;;;;36.69;22.96;101321.88;5049307;28;20393;-59
2022/09/08 07:30:33;;;;;;;6.32;5.20;;;;;;;36.31;23.59;101328.19;5051618;28;20481;-60
2022/09/08 07:33:08;;;;;;;7.70;6.20;;;;;;;35.53;24.35;101318.03;5037685;28;20427;-59
2022/09/08 07:35:47;;;;;;;7.47;5.57;;;;;;;34.94;25.01;101322.03;5051463;28;20406;-59
2022/09/08 07:38:21;;;;;;;7.43;5.40;;;;;;;34.69;25.87;101314.50;5038958;28;20376;-59
2022/09/08 07:40:51;;;;;;;6.97;5.50;;;;;;;34.17;26.29;101315.88;5050719;28;20870;-59
2022/09/08 07:43:17;;;;;;;9.20;5.78;;;;;;;33.77;27.24;101315.78;5051055;28;20428;-60
2022/09/08 07:46:01;;;;;;;7.47;6.20;;;;;;;33.23;28.06;101314.84;5050991;28;20507;-58
2022/09/08 07:48:36;;;;;;;10.75;5.78;;;;;;;32.45;29.37;101318.28;5046556;28;20838;-58
2022/09/08 07:51:14;;;;;;;7.47;6.35;;;;;;;31.90;30.10;101323.63;5051178;28;20412;-58
2022/09/08 07:53:42;;;;;;;8.17;6.33;;;;;;;31.76;30.28;101324.38;5050814;28;20442;-57
2022/09/08 07:56:22;;;;;;;6.95;6.20;;;;;;;31.38;30.53;101321.63;5050874;28;20500;-59
2022/09/08 07:59:08;;;;;;;7.15;6.13;;;;;;;31.20;31.09;101328.72;5050834;28;20570;-58
2022/09/08 08:01:46;;;;;;;9.43;6.55;;;;;;;30.74;31.55;101318.34;5050926;28;20389;-57
2022/09/08 08:04:50;;;;;;;9.52;6.20;;;;;;;30.57;32.53;101329.72;5050856;28;20377;-58
2022/09/08 08:07:58;;;;;;;8.63;5.80;;;;;;;30.91;31.49;101331.53;5050473;28;20385;-57
2022/09/08 08:10:34;;;;;;;9.57;5.95;;;;;;;30.92;31.28;101335.13;5048084;28;20404;-58
2022/09/08 08:13:12;;;;;;;8.03;5.77;;;;;;;30.47;31.99;101330.66;5039570;28;20952;-58
2022/09/08 08:15:45;;;;;;;7.97;5.68;;;;;;;30.19;32.30;101326.78;5049466;28;20424;-57
2022/09/08 08:18:21;;;;;;;8.20;5.93;;;;;;;29.94;32.07;101336.03;5050536;28;20744;-58
2022/09/08 08:21:00;;;;;;;9.43;5.72;;;;;;;29.59;32.76;101337.91;5050541;28;20442;-59
2022/09/08 08:23:28;;;;;;;8.98;6.30;;;;;;;29.42;33.27;101329.25;5050890;28;20404;-58
2022/09/08 08:26:11;;;;;;;8.45;5.35;;;;;;;29.70;33.57;101327.72;5050138;28;20413;-58
2022/09/08 08:28:41;;;;;;;9.80;6.78;;;;;;;29.53;33.52;101322.63;5050301;28;20495;-59
2022/09/08 08:31:25;;;;;;;9.90;6.47;;;;;;;29.10;34.34;101317.66;5050300;28;20385;-58
2022/09/08 08:34:01;;;;;;;10.45;5.97;;;;;;;29.21;34.47;101317.63;5050401;28;20384;-58
2022/09/08 08:36:31;;;;;;;6.20;5.60;;;;;;;29.13;34.21;101316.28;5049830;28;20463;-58
2022/09/08 08:39:03;;;;;;;6.97;6.03;;;;;;;29.06;34.53;101324.75;5050096;28;20460;-58
2022/09/08 08:41:34;;;;;;;7.53;5.93;;;;;;;29.05;34.35;101325.06;5050200;28;20393;-58
2022/09/08 08:44:43;;;;;;;9.30;5.78;;;;;;;28.70;34.42;101321.34;5046359;28;20450;-58
2022/09/08 08:47:14;;;;;;;7.15;5.72;;;;;;;28.48;34.48;101308.00;5040669;28;20396;-59
2022/09/08 08:49:42;;;;;;;7.43;6.03;;;;;;;28.36;34.74;101302.84;5049031;28;20399;-58
2022/09/08 08:52:58;;;;;;;8.60;6.00;;;;;;;28.48;34.67;101300.63;5049183;28;20384;-60
2022/09/08 08:56:01;;;;;;;5.97;5.10;;;;;;;28.65;34.68;101294.06;5021294;28;20416;-59
2022/09/08 08:58:47;;;;;;;5.85;5.25;;;;;;;28.62;34.39;101291.94;5049882;28;20468;-59
2022/09/08 09:01:29;;;;;;;8.73;5.67;;;;;;;28.46;35.04;101283.75;5049993;28;20395;-58
2022/09/08 09:04:16;;;;;;;5.93;5.30;;;;;;;28.26;35.85;101272.88;5042721;28;20430;-59
2022/09/08 09:07:00;;;;;;;6.00;5.40;;;;;;;28.19;36.25;101262.25;5046836;28;20408;-56
2022/09/08 09:09:37;;;;;;;7.33;5.40;;;;;;;28.25;35.87;101272.06;5045856;28;20446;-59
2022/09/08 09:12:24;;;;;;;7.95;5.97;;;;;;;28.05;36.62;101272.91;5048371;28;20521;-58
2022/09/08 09:14:52;;;;;;;9.43;5.60;;;;;;;28.21;36.63;101263.59;5040332;28;20372;-59
2022/09/08 09:17:59;;;;;;;7.35;5.65;;;;;;;28.32;36.01;101256.22;5045091;28;20499;-59
2022/09/08 09:20:33;;;;;;;9.13;5.57;;;;;;;28.41;36.07;101251.88;5047161;28;20403;-58
2022/09/08 09:23:05;;;;;;;6.65;5.65;;;;;;;28.49;36.18;101261.38;5035618;28;20392;-59
2022/09/08 09:25:35;;;;;;;7.15;6.38;;;;;;;28.66;35.87;101254.81;5047192;28;20412;-58
2022/09/08 09:28:26;;;;;;;7.85;5.93;;;;;;;28.66;36.07;101247.44;5047063;28;20495;-58
2022/09/08 09:31:12;;;;;;;9.77;5.15;;;;;;;28.46;35.88;101245.56;5045644;28;20462;-58
2022/09/08 09:34:22;;;;;;;7.25;5.07;;;;;;;28.31;35.75;101251.06;5047262;28;20886;-58
2022/09/08 09:37:18;;;;;;;6.45;4.90;;;;;;;28.17;35.85;101246.19;5026057;28;20423;-58
2022/09/08 09:39:49;;;;;;;8.65;5.72;;;;;;;27.89;35.55;101247.53;5047581;28;20737;-60
2022/09/08 09:42:47;;;;;;;5.60;4.65;;;;;;;27.82;35.73;101234.22;5047599;28;20407;-58
2022/09/08 09:45:48;;;;;;;6.20;5.10;;;;;;;27.81;36.59;101234.47;5047622;28;20985;-58
2022/09/08 09:48:44;;;;;;;7.95;5.55;;;;;;;27.77;37.16;101233.41;5048144;28;20416;-58
2022/09/08 09:51:25;;;;;;;7.67;5.80;;;;;;;27.62;36.98;101223.28;5044663;28;20408;-58
2022/09/08 09:53:58;;;;;;;8.40;5.70;;;;;;;27.68;37.84;101214.06;5045939;28;20825;-58
2022/09/08 09:59:13;;;;;;;8.77;5.80;;;;;;;27.83;38.29;101215.94;5079910;27;20403;-58
2022/09/08 10:02:06;;;;;;;7.90;5.77;;;;;;;27.63;37.70;101222.22;5074595;28;20396;-59
2022/09/08 10:05:09;;;;;;;7.88;5.05;;;;;;;27.46;38.07;101214.31;5077420;28;20408;-60
2022/09/08 10:07:34;;;;;;;5.63;5.03;;;;;;;27.49;37.60;101223.84;5085317;28;20862;-60
2022/09/08 10:10:21;;;;;;;7.20;5.03;;;;;;;27.45;37.48;101210.78;5086265;28;20557;-59
2022/09/08 10:13:34;;;;;;;7.10;5.10;;;;;;;27.44;37.35;101206.44;5082474;28;20481;-58
2022/09/08 10:16:15;;;;;;;7.72;5.03;;;;;;;27.62;37.22;101205.06;5021465;28;20886;-58
2022/09/08 10:19:19;;;;;;;8.07;4.53;;;;;;;27.61;36.64;101205.34;5077406;28;20418;-59
2022/09/08 10:22:03;;;;;;;6.68;4.57;;;;;;;27.52;37.00;101188.72;5084764;28;20378;-58
2022/09/08 10:24:50;;;;;;;6.53;4.63;;;;;;;27.64;36.49;101174.81;5085860;28;20378;-58
2022/09/08 10:27:48;;;;;;;4.85;4.22;;;;;;;27.56;36.03;101189.00;5085305;28;20807;-58
2022/09/08 10:30:35;;;;;;;9.23;4.40;;;;;;;27.52;36.37;101180.56;5081043;28;20390;-57
2022/09/08 10:33:03;;;;;;;4.20;3.80;;;;;;;27.57;36.14;101174.31;5076711;28;20441;-57
2022/09/08 10:35:38;;;;;;;6.25;4.35;;;;;;;27.60;35.67;101171.00;5079839;28;20458;-57
2022/09/08 10:38:26;;;;;;;4.43;3.90;;;;;;;27.69;35.86;101168.56;5085344;28;20416;-58
2022/09/08 10:40:54;;;;;;;5.57;4.10;;;;;;;27.76;35.53;101159.00;5078617;28;20390;-59
2022/09/08 10:43:38;;;;;;;5.55;4.13;;;;;;;27.75;35.76;101159.28;5084360;28;20375;-58
2022/09/08 10:46:12;;;;;;;6.72;4.60;;;;;;;27.83;35.83;101161.47;5086642;28;20403;-58
2022/09/08 10:49:18;;;;;;;4.78;4.20;;;;;;;27.90;36.33;101158.47;5078398;28;20383;-58
2022/09/08 10:52:21;;;;;;;6.30;4.97;;;;;;;28.00;36.01;101151.09;5084815;28;20397;-58
2022/09/08 10:54:49;;;;;;;7.80;5.15;;;;;;;28.01;35.77;101149.19;5078625;28;20938;-58
2022/09/08 10:57:30;;;;;;;7.32;4.82;;;;;;;28.11;36.27;101146.44;5084821;28;20429;-58
2022/09/08 11:00:05;;;;;;;8.77;5.25;;;;;;;28.08;36.80;101154.34;5072500;28;20459;-58
2022/09/08 11:02:31;;;;;;;5.93;4.95;;;;;;;28.08;37.20;101147.00;5074193;28;20406;-58
2022/09/08 11:05:41;;;;;;;7.05;4.82;;;;;;;28.21;37.04;101143.66;5081705;28;20390;-58
2022/09/08 11:08:43;;;;;;;6.57;5.35;;;;;;;28.34;36.87;101150.44;5079216;28;20445;-59
2022/09/08 11:11:50;;;;;;;5.60;4.75;;;;;;;28.39;36.48;101138.69;5068578;28;20955;-58
2022/09/08 11:14:52;;;;;;;7.00;4.75;;;;;;;28.49;36.64;101135.94;5061448;28;20412;-58
2022/09/08 11:17:26;;;;;;;6.97;5.00;;;;;;;28.62;36.86;101139.97;5068807;28;21003;-58
2022/09/08 11:19:57;;;;;;;8.13;5.20;;;;;;;28.52;36.51;101140.81;5068336;28;20472;-59
2022/09/08 11:22:37;;;;;;;9.05;5.13;;;;;;;28.42;36.85;101141.66;5066124;28;20494;-58
2022/09/08 11:25:18;;;;;;;7.90;4.87;;;;;;;28.39;36.51;101142.22;5068776;28;20448;-58
2022/09/08 11:27:56;;;;;;;6.93;4.90;;;;;;;28.36;36.51;101134.63;5070481;28;20405;-58
2022/09/08 11:30:53;;;;;;;7.75;4.93;;;;;;;28.50;36.30;101137.53;5070042;28;21242;-59
2022/09/08 11:33:44;;;;;;;6.00;4.80;;;;;;;28.60;36.14;101140.25;5064175;28;20442;-57
2022/09/08 11:36:16;;;;;;;5.13;4.40;;;;;;;28.63;36.45;101138.06;5069067;28;20373;-58
2022/09/08 11:39:09;;;;;;;8.13;4.75;;;;;;;28.62;36.05;101139.97;5069663;28;20417;-58
2022/09/08 11:41:52;;;;;;;6.90;4.50;;;;;;;28.77;36.51;101139.91;5063279;28;20388;-58
2022/09/08 11:44:43;;;;;;;8.70;4.68;;;;;;;28.96;36.52;101134.56;5064019;28;20395;-58
2022/09/08 11:47:36;;;;;;;7.72;4.60;;;;;;;29.09;35.91;101146.75;5066634;28;20825;-58
2022/09/08 11:50:50;;;;;;;7.85;4.80;;;;;;;29.31;35.85;101124.50;5069953;28;20387;-58
2022/09/08 11:53:24;;;;;;;7.85;4.75;;;;;;;29.49;35.63;101125.69;5041512;28;20478;-58
2022/09/08 11:55:52;;;;;;;6.75;4.72;;;;;;;29.57;34.96;101137.09;5064086;28;20383;-58
2022/09/08 11:58:23;;;;;;;5.13;4.25;;;;;;;29.58;34.52;101119.63;5053123;28;20427;-58
2022/09/08 12:01:28;;;;;;;5.03;4.55;;;;;;;29.57;34.09;101120.72;5051522;28;20385;-58
2022/09/08 12:04:15;;;;;;;4.80;4.30;;;;;;;29.74;34.70;101115.63;5059683;28;20744;-61
2022/09/08 12:06:59;;;;;;;5.30;4.40;;;;;;;29.88;33.96;101122.06;5070243;28;20411;-59
2022/09/08 12:09:46;;;;;;;5.75;4.03;;;;;;;29.88;33.73;101118.53;5054829;28;20399;-59
2022/09/08 12:12:30;;;;;;;5.97;4.18;;;;;;;29.88;33.70;101116.59;5070561;28;20379;-57
2022/09/08 12:15:49;;;;;;;9.50;4.50;;;;;;;29.95;33.81;101110.00;5073968;28;20391;-57
2022/09/08 12:18:41;;;;;;;7.78;4.03;;;;;;;29.97;33.93;101107.78;5054149;28;20788;-58
2022/09/08 12:21:24;;;;;;;7.88;4.30;;;;;;;30.08;33.35;101112.81;5070750;28;20374;-58
2022/09/08 12:24:24;;;;;;;7.13;4.40;;;;;;;30.14;33.35;101123.69;5067271;28;20407;-57
2022/09/08 12:27:04;;;;;;;5.13;4.20;;;;;;;30.10;33.20;101118.81;5068123;28;20896;-58
2022/09/08 12:30:15;;;;;;;6.33;4.10;;;;;;;30.11;33.02;101105.97;5067561;28;20392;-57